Airfield :







YOU CAN JOIN US ON...

 
LOGIN :

Register | Disclaimer

   EN    FR    IT 

 









Legend :    VFR   Marginal VFR   IFR   Intensive IFR   Very Intensive IFR
Visi :
Ceiling :
>= 8 km
>= 3000ft
5 to 8 km
1000 to 3000 ft
1500m to 5 km
500 to 1000 ft
800 to 1500m
200 to 500 ft
< 800m
< 200 ft
Symbols :   Thunderstorms  Fog  Heavy snow  Heavy precipitations  Wind > 20 kt






- Airport Elevation : 1194 ft


KPSF - Pittsfield Municipal

CURRENT METAR :
  • 131754Z AUTO 24010KT 10SM FEW050 BKN075 25/13 A2989 RMK AO2 SLP101 T02500128 10250 20150 58007

EXPIRED METARs :
  • 131654Z AUTO 24005KT 10SM FEW047 BKN060 BKN080 24/13 A2990 RMK AO2 SLP103 T02390133
  • 131554Z AUTO 10SM SCT039 BKN070 23/13 A2990 RMK AO2 SLP104 T02330133

TAF KPSF
Valid from the 13 at 18:00 until the 14 at 18:00 UTC


131746Z 1318/1418 24006KT P6SM BKN050
FM140700 21008KT P6SM VCSH BKN018
PROB30 1409/1413 2SM +SHRA BKN008 OVC012
FM141300 18007KT 5SM -SHRA BR BKN005
KZBW FIR / North America



MET'MAP, your aeronautical weather chart ! - Copyright ORBIFLY December 2007 - Disclaimer

ORBIFLY MET'MAP TEAM :

Programming & Development : Alexandra Zaïnal
Concept & original design : Baudouin d'Aumeries
Assistance for programming : Marc-Olivier Méhu
Technical & hardware support : Manuel Goepfert

Contact : metmap@orbifly.com




SOURCES & CREDITS :

   NOAA